EGQS - Lossiemouth
Distance from station: E 5mi, 14km
Updated: 07/21/2018 7:50am
Partly Cloudy
Partly Cloudy
 Wind from E
Wind: E 8 mph , 13 km/h
Temperature: 64°F , 18°C
Dew Point: 55°F , 13°C
Humidity: 73%
Barometer: 29.85 inHg , 1011 hPa
Clouds: Partly Cloudy
Visibility: 6 miles , 10 km
Cloud details: Few Clouds 3000 ft
Partly Cloudy 30000 ft
2018/07/21 14:50 EGQS 211450Z 08007KT 9999 FEW030 SCT300 18/13 Q1011 BLU